PROFILE

 METAR AND TAF INFORMATION
ADDS - METARS form results

(0645 UTC 19 July 2019)
http://aviationweather.gov/metar/data/
 
EGGD 190620Z 15008KT 6000 -RA BKN004 BKN025 14/13 Q1011
EGGD 190550Z 17007KT 9999 -RA SCT006 BKN030 14/13 Q1011
TAF EGGD 190501Z 1906/2006 15008KT 9999 SCT010 BECMG 1906/1909 6000 RA BKN010 TEMPO 1906/1911 2500 +RA BKN004 PROB40 TEMPO 1908/1911 21016G26KT 0500 FG BKN001 BECMG 1909/1912 22012KT 9999 NSW SCT010 BKN020 TEMPO 1912/1916 7000 SHRA BKN006 BKN010CB PROB30 TEMPO 1912/1915 3000 +SHRA TSGS TEMPO 1918/1924 6000 RA BKN008 PROB30 TEMPO 2000/2006 8000 SHRA 

 AIRPORT MAP

 RUNWAY INFORMATION
Runway 09 Runway length 6598 ft Runway width 151 ft
Runway elevation 613 ft Runway displaced threshold 0 ft Runway heading 86
Runway 27 Runway length 6598 ft Runway width 151 ft
Runway elevation 601 ft Runway displaced threshold 443 ft Runway heading 266

 AIRPORT FREQUENCIES
Type ATIS Name ATIS Frequency 126.025 MHZ
Type GND Name GND Frequency 121.925 MHZ
Type RDR Name RDR Frequency 136.075 MHZ
Type TWR Name TWR Frequency 133.85 MHZ

 AIRPORT NEAR NAVIGATION AIDS
Type NDB Name Bristol Frequency 414 KHZ